sensor_id;sensor_type;location;lat;lon;timestamp;pressure;altitude;pressure_sealevel;temperature;humidity
29163;BME280;20331;53.144;8.208;2023-05-12T00:03:36;101773.97;;;14.23;98.28
29163;BME280;20331;53.144;8.208;2023-05-12T00:13:57;101769.69;;;14.20;98.00
29163;BME280;20331;53.144;8.208;2023-05-12T00:24:19;101789.72;;;14.18;97.73
29163;BME280;20331;53.144;8.208;2023-05-12T00:34:40;101799.31;;;14.16;97.41
29163;BME280;20331;53.144;8.208;2023-05-12T00:45:03;101792.50;;;14.12;97.25
29163;BME280;20331;53.144;8.208;2023-05-12T00:55:25;101792.94;;;13.97;96.88
29163;BME280;20331;53.144;8.208;2023-05-12T01:05:54;101795.81;;;13.88;96.49
29163;BME280;20331;53.144;8.208;2023-05-12T01:16:16;101814.41;;;13.74;96.30
29163;BME280;20331;53.144;8.208;2023-05-12T01:26:40;101812.91;;;13.66;96.15
29163;BME280;20331;53.144;8.208;2023-05-12T01:37:01;101811.44;;;13.56;96.29
29163;BME280;20331;53.144;8.208;2023-05-12T01:47:23;101822.06;;;13.47;95.62
29163;BME280;20331;53.144;8.208;2023-05-12T01:57:44;101827.59;;;13.35;95.49
29163;BME280;20331;53.144;8.208;2023-05-12T02:08:06;101833.91;;;13.25;95.72
29163;BME280;20331;53.144;8.208;2023-05-12T02:18:27;101852.25;;;13.19;95.65
29163;BME280;20331;53.144;8.208;2023-05-12T02:28:49;101842.84;;;13.13;95.01
29163;BME280;20331;53.144;8.208;2023-05-12T02:39:10;101846.53;;;13.04;96.00
29163;BME280;20331;53.144;8.208;2023-05-12T02:49:31;101837.06;;;13.00;98.52
29163;BME280;20331;53.144;8.208;2023-05-12T02:59:53;101838.91;;;12.95;96.87
29163;BME280;20331;53.144;8.208;2023-05-12T03:10:15;101839.00;;;12.92;99.17
29163;BME280;20331;53.144;8.208;2023-05-12T03:20:37;101846.09;;;12.84;97.07
29163;BME280;20331;53.144;8.208;2023-05-12T03:30:59;101859.97;;;12.85;98.65
29163;BME280;20331;53.144;8.208;2023-05-12T03:41:20;101851.91;;;12.95;98.49
29163;BME280;20331;53.144;8.208;2023-05-12T03:51:42;101846.63;;;13.00;99.44
29163;BME280;20331;53.144;8.208;2023-05-12T04:02:03;101860.44;;;13.00;98.74
29163;BME280;20331;53.144;8.208;2023-05-12T04:12:27;101859.56;;;13.01;98.87
29163;BME280;20331;53.144;8.208;2023-05-12T04:22:49;101863.72;;;13.10;100.00
29163;BME280;20331;53.144;8.208;2023-05-12T04:33:11;101875.88;;;13.08;99.26
29163;BME280;20331;53.144;8.208;2023-05-12T04:43:32;101886.19;;;13.13;100.00
29163;BME280;20331;53.144;8.208;2023-05-12T04:53:57;101905.94;;;13.20;99.68
29163;BME280;20331;53.144;8.208;2023-05-12T05:04:18;101929.13;;;13.29;99.80
29163;BME280;20331;53.144;8.208;2023-05-12T05:14:40;101931.59;;;13.35;99.52
29163;BME280;20331;53.144;8.208;2023-05-12T05:25:01;101937.56;;;13.38;100.00
29163;BME280;20331;53.144;8.208;2023-05-12T05:35:22;101953.00;;;13.46;99.75
29163;BME280;20331;53.144;8.208;2023-05-12T05:45:44;101959.59;;;13.59;99.20
29163;BME280;20331;53.144;8.208;2023-05-12T05:56:05;101961.81;;;13.74;99.32
29163;BME280;20331;53.144;8.208;2023-05-12T06:06:27;101970.16;;;13.88;99.25
29163;BME280;20331;53.144;8.208;2023-05-12T06:16:49;101969.75;;;14.03;98.96
29163;BME280;20331;53.144;8.208;2023-05-12T06:27:10;101979.66;;;14.21;97.65
29163;BME280;20331;53.144;8.208;2023-05-12T06:37:32;101993.44;;;14.28;96.01
29163;BME280;20331;53.144;8.208;2023-05-12T06:47:53;102000.78;;;14.44;95.58
29163;BME280;20331;53.144;8.208;2023-05-12T06:58:14;102013.56;;;14.53;95.80
29163;BME280;20331;53.144;8.208;2023-05-12T07:08:36;102023.31;;;14.77;94.53
29163;BME280;20331;53.144;8.208;2023-05-12T07:18:57;102025.34;;;14.97;92.76
29163;BME280;20331;53.144;8.208;2023-05-12T07:29:19;102028.97;;;15.21;93.12
29163;BME280;20331;53.144;8.208;2023-05-12T07:39:40;102026.59;;;15.44;92.22
29163;BME280;20331;53.144;8.208;2023-05-12T07:50:02;102027.03;;;15.84;91.61
29163;BME280;20331;53.144;8.208;2023-05-12T08:00:23;102013.06;;;16.11;88.92
29163;BME280;20331;53.144;8.208;2023-05-12T08:10:45;102031.53;;;16.31;87.30
29163;BME280;20331;53.144;8.208;2023-05-12T08:21:06;102021.81;;;16.59;85.80
29163;BME280;20331;53.144;8.208;2023-05-12T08:31:28;102029.03;;;16.77;85.51
29163;BME280;20331;53.144;8.208;2023-05-12T08:52:11;102033.78;;;17.36;83.73
29163;BME280;20331;53.144;8.208;2023-05-12T09:02:35;102042.16;;;17.44;83.44
29163;BME280;20331;53.144;8.208;2023-05-12T09:13:15;102048.56;;;17.60;81.42
29163;BME280;20331;53.144;8.208;2023-05-12T09:23:37;102035.03;;;17.92;80.94
29163;BME280;20331;53.144;8.208;2023-05-12T09:34:05;102059.81;;;18.25;81.15
29163;BME280;20331;53.144;8.208;2023-05-12T09:44:26;102051.31;;;18.40;79.59
29163;BME280;20331;53.144;8.208;2023-05-12T09:54:51;102046.41;;;18.73;78.09
29163;BME280;20331;53.144;8.208;2023-05-12T10:05:13;102052.41;;;19.14;77.04
29163;BME280;20331;53.144;8.208;2023-05-12T10:15:36;102048.09;;;19.50;74.75
29163;BME280;20331;53.144;8.208;2023-05-12T10:25:58;102038.00;;;19.95;76.26
29163;BME280;20331;53.144;8.208;2023-05-12T10:36:22;102035.09;;;20.18;73.83
29163;BME280;20331;53.144;8.208;2023-05-12T10:46:43;102036.78;;;20.53;74.01
29163;BME280;20331;53.144;8.208;2023-05-12T10:57:10;102039.25;;;20.89;70.48
29163;BME280;20331;53.144;8.208;2023-05-12T11:07:37;102039.16;;;21.23;70.88
29163;BME280;20331;53.144;8.208;2023-05-12T11:18:03;102037.78;;;21.63;67.59
29163;BME280;20331;53.144;8.208;2023-05-12T11:28:24;102039.13;;;22.01;65.90
29163;BME280;20331;53.144;8.208;2023-05-12T11:38:49;102025.63;;;22.35;66.68
29163;BME280;20331;53.144;8.208;2023-05-12T11:49:11;102032.44;;;22.53;68.00
29163;BME280;20331;53.144;8.208;2023-05-12T11:59:33;102037.59;;;22.70;63.10
29163;BME280;20331;53.144;8.208;2023-05-12T12:09:55;102040.22;;;22.84;66.18
29163;BME280;20331;53.144;8.208;2023-05-12T12:20:16;102040.56;;;22.50;65.57
29163;BME280;20331;53.144;8.208;2023-05-12T12:30:38;102045.44;;;22.42;60.16
29163;BME280;20331;53.144;8.208;2023-05-12T12:41:00;102039.03;;;22.32;58.49
29163;BME280;20331;53.144;8.208;2023-05-12T12:51:21;102045.75;;;22.22;63.63
29163;BME280;20331;53.144;8.208;2023-05-12T13:01:44;102043.97;;;21.93;61.66
29163;BME280;20331;53.144;8.208;2023-05-12T13:12:06;102051.03;;;21.77;65.64
29163;BME280;20331;53.144;8.208;2023-05-12T13:22:27;102051.03;;;21.77;67.60
29163;BME280;20331;53.144;8.208;2023-05-12T13:32:49;102046.38;;;21.66;66.65
29163;BME280;20331;53.144;8.208;2023-05-12T13:43:11;102033.19;;;21.82;61.94
29163;BME280;20331;53.144;8.208;2023-05-12T13:53:33;102022.66;;;21.82;64.87
29163;BME280;20331;53.144;8.208;2023-05-12T14:03:55;102027.97;;;21.96;65.51
29163;BME280;20331;53.144;8.208;2023-05-12T14:14:16;102024.41;;;21.97;62.67
29163;BME280;20331;53.144;8.208;2023-05-12T14:24:38;102038.13;;;21.88;60.01
29163;BME280;20331;53.144;8.208;2023-05-12T14:34:59;102034.53;;;21.89;58.47
29163;BME280;20331;53.144;8.208;2023-05-12T14:45:21;102043.00;;;21.64;62.79
29163;BME280;20331;53.144;8.208;2023-05-12T14:55:43;102046.97;;;21.56;64.40
29163;BME280;20331;53.144;8.208;2023-05-12T15:06:05;102047.66;;;21.44;64.99
29163;BME280;20331;53.144;8.208;2023-05-12T15:16:28;102051.72;;;21.34;61.61
29163;BME280;20331;53.144;8.208;2023-05-12T15:26:50;102036.28;;;21.59;64.85
29163;BME280;20331;53.144;8.208;2023-05-12T15:37:11;102042.38;;;21.75;63.08
29163;BME280;20331;53.144;8.208;2023-05-12T15:47:33;102042.78;;;21.83;54.62
29163;BME280;20331;53.144;8.208;2023-05-12T15:57:55;102025.28;;;21.82;60.90
29163;BME280;20331;53.144;8.208;2023-05-12T16:08:16;102037.47;;;21.84;61.99
29163;BME280;20331;53.144;8.208;2023-05-12T16:18:38;102040.09;;;22.14;58.86
29163;BME280;20331;53.144;8.208;2023-05-12T16:29:00;102047.66;;;22.20;59.59
29163;BME280;20331;53.144;8.208;2023-05-12T16:39:21;102034.53;;;22.48;61.46
29163;BME280;20331;53.144;8.208;2023-05-12T16:49:43;102034.91;;;22.56;60.52
29163;BME280;20331;53.144;8.208;2023-05-12T17:00:04;102049.47;;;22.63;62.59
29163;BME280;20331;53.144;8.208;2023-05-12T17:10:26;102044.31;;;22.46;60.91
29163;BME280;20331;53.144;8.208;2023-05-12T17:20:48;102054.56;;;22.37;61.93
29163;BME280;20331;53.144;8.208;2023-05-12T17:31:09;102063.50;;;22.34;60.22
29163;BME280;20331;53.144;8.208;2023-05-12T17:41:31;102065.88;;;22.09;60.38
29163;BME280;20331;53.144;8.208;2023-05-12T17:51:53;102074.63;;;21.80;57.03
29163;BME280;20331;53.144;8.208;2023-05-12T18:02:14;102076.91;;;21.55;61.70
29163;BME280;20331;53.144;8.208;2023-05-12T18:12:36;102079.78;;;21.35;61.17
29163;BME280;20331;53.144;8.208;2023-05-12T18:22:58;102093.50;;;21.09;63.98
29163;BME280;20331;53.144;8.208;2023-05-12T18:33:19;102098.16;;;20.86;63.57
29163;BME280;20331;53.144;8.208;2023-05-12T18:43:40;102107.25;;;20.64;61.55
29163;BME280;20331;53.144;8.208;2023-05-12T18:54:04;102113.91;;;20.37;63.53
29163;BME280;20331;53.144;8.208;2023-05-12T19:04:25;102121.97;;;20.15;63.30
29163;BME280;20331;53.144;8.208;2023-05-12T19:14:47;102131.81;;;19.93;65.04
29163;BME280;20331;53.144;8.208;2023-05-12T19:25:08;102149.75;;;19.66;62.70
29163;BME280;20331;53.144;8.208;2023-05-12T19:35:30;102155.16;;;19.45;65.66
29163;BME280;20331;53.144;8.208;2023-05-12T19:45:52;102154.56;;;19.18;65.04
29163;BME280;20331;53.144;8.208;2023-05-12T19:56:14;102163.38;;;18.97;66.50
29163;BME280;20331;53.144;8.208;2023-05-12T20:06:35;102174.84;;;18.74;65.43
29163;BME280;20331;53.144;8.208;2023-05-12T20:16:57;102187.81;;;18.57;65.55
29163;BME280;20331;53.144;8.208;2023-05-12T20:27:19;102183.28;;;18.39;65.88
29163;BME280;20331;53.144;8.208;2023-05-12T20:37:40;102183.59;;;18.32;67.92
29163;BME280;20331;53.144;8.208;2023-05-12T20:48:02;102192.63;;;18.25;67.05
29163;BME280;20331;53.144;8.208;2023-05-12T20:58:23;102201.56;;;18.19;65.61
29163;BME280;20331;53.144;8.208;2023-05-12T21:08:45;102196.47;;;18.16;64.08
29163;BME280;20331;53.144;8.208;2023-05-12T21:19:06;102211.09;;;18.00;65.46
29163;BME280;20331;53.144;8.208;2023-05-12T21:29:28;102209.59;;;17.93;65.72
29163;BME280;20331;53.144;8.208;2023-05-12T21:39:49;102220.41;;;17.84;65.52
29163;BME280;20331;53.144;8.208;2023-05-12T21:50:11;102231.50;;;17.69;66.55
29163;BME280;20331;53.144;8.208;2023-05-12T22:00:32;102223.38;;;17.52;66.96
29163;BME280;20331;53.144;8.208;2023-05-12T22:10:54;102233.63;;;17.33;67.39
29163;BME280;20331;53.144;8.208;2023-05-12T22:21:16;102235.06;;;17.17;67.54
29163;BME280;20331;53.144;8.208;2023-05-12T22:31:37;102244.19;;;17.05;67.73
29163;BME280;20331;53.144;8.208;2023-05-12T22:41:59;102259.25;;;16.99;68.59
29163;BME280;20331;53.144;8.208;2023-05-12T22:52:20;102254.50;;;16.84;67.84
29163;BME280;20331;53.144;8.208;2023-05-12T23:02:41;102259.34;;;16.70;68.44
29163;BME280;20331;53.144;8.208;2023-05-12T23:13:03;102247.69;;;16.52;67.87
29163;BME280;20331;53.144;8.208;2023-05-12T23:23:25;102258.59;;;16.37;68.46
29163;BME280;20331;53.144;8.208;2023-05-12T23:33:46;102260.88;;;16.20;68.70
29163;BME280;20331;53.144;8.208;2023-05-12T23:44:08;102261.34;;;16.05;68.64
29163;BME280;20331;53.144;8.208;2023-05-12T23:54:29;102259.97;;;15.92;70.08
